createdAt,value
2017-07-26T00:00:32.883Z,84.49
2017-07-26T00:03:00.435Z,83.84
2017-07-26T00:05:27.879Z,84.26
2017-07-26T00:07:55.339Z,84.56
2017-07-26T00:10:22.809Z,84.99
2017-07-26T00:12:50.291Z,84.68
2017-07-26T00:15:17.736Z,85.65
2017-07-26T00:17:45.232Z,85.75
2017-07-26T00:20:12.741Z,86.31
2017-07-26T00:22:40.199Z,86.43
2017-07-26T00:25:07.640Z,86.80
2017-07-26T00:27:35.104Z,86.12
2017-07-26T00:30:02.547Z,86.32
2017-07-26T00:32:30.003Z,86.23
2017-07-26T00:34:57.472Z,85.97
2017-07-26T00:37:24.905Z,85.50
2017-07-26T00:39:52.391Z,85.68
2017-07-26T00:42:19.948Z,86.07
2017-07-26T00:44:47.413Z,85.82
2017-07-26T00:47:14.955Z,86.31
2017-07-26T00:49:42.414Z,86.73
2017-07-26T00:52:09.842Z,86.56
2017-07-26T00:54:37.327Z,86.21
2017-07-26T00:57:04.788Z,86.27
2017-07-26T00:59:32.339Z,85.91
2017-07-26T01:01:59.769Z,85.94
2017-07-26T01:04:27.362Z,85.88
2017-07-26T01:06:55.392Z,85.04
2017-07-26T01:09:22.890Z,84.97
2017-07-26T01:11:50.361Z,84.74
2017-07-26T01:14:17.906Z,85.09
2017-07-26T01:16:45.362Z,85.22
2017-07-26T01:19:13.445Z,85.09
2017-07-26T01:21:40.916Z,84.89
2017-07-26T01:24:08.429Z,84.28
2017-07-26T01:26:35.899Z,84.00
2017-07-26T01:29:03.329Z,83.40
2017-07-26T01:31:30.805Z,83.57
2017-07-26T01:33:58.233Z,83.10
2017-07-26T01:36:25.683Z,84.07
2017-07-26T01:38:53.198Z,83.28
2017-07-26T01:41:20.686Z,83.53
2017-07-26T01:43:48.145Z,83.72
2017-07-26T01:46:15.601Z,84.05
2017-07-26T01:48:43.167Z,83.78
2017-07-26T01:51:10.602Z,84.21
2017-07-26T01:53:38.122Z,83.58
2017-07-26T01:56:05.558Z,83.25
2017-07-26T01:58:33.021Z,83.58
2017-07-26T02:01:00.463Z,83.49
2017-07-26T02:03:27.917Z,83.20
2017-07-26T02:05:55.407Z,83.12
2017-07-26T02:08:22.914Z,82.91
2017-07-26T02:10:50.426Z,82.49
2017-07-26T02:13:17.867Z,83.02
2017-07-26T02:15:45.352Z,83.04
2017-07-26T02:18:12.890Z,82.71
2017-07-26T02:20:40.453Z,82.75
2017-07-26T02:23:07.902Z,82.34
2017-07-26T02:25:35.375Z,82.90
2017-07-26T02:28:02.824Z,81.67
2017-07-26T02:30:30.339Z,82.31
2017-07-26T02:32:57.895Z,81.58
2017-07-26T02:35:25.380Z,81.32
2017-07-26T02:37:52.862Z,81.33
2017-07-26T02:40:20.330Z,81.53
2017-07-26T02:42:47.771Z,81.02
2017-07-26T02:45:15.253Z,80.79
2017-07-26T02:47:42.938Z,80.45
2017-07-26T02:50:10.407Z,80.25
2017-07-26T02:52:37.863Z,80.55
2017-07-26T02:55:05.361Z,81.07
2017-07-26T02:57:32.797Z,81.02
2017-07-26T03:00:00.514Z,82.45
2017-07-26T03:02:27.953Z,81.84
2017-07-26T03:04:55.419Z,81.83
2017-07-26T03:07:22.948Z,82.11
2017-07-26T03:09:50.497Z,82.47
2017-07-26T03:12:18.318Z,82.47
2017-07-26T03:14:45.827Z,83.09
2017-07-26T03:17:13.392Z,82.65
2017-07-26T03:19:40.841Z,83.13
2017-07-26T03:22:08.330Z,82.84
2017-07-26T03:24:36.061Z,83.21
2017-07-26T03:27:03.605Z,83.44
2017-07-26T03:29:31.086Z,83.50
2017-07-26T03:31:58.569Z,83.44
2017-07-26T03:34:26.027Z,83.27
2017-07-26T03:36:53.855Z,82.97
2017-07-26T03:39:21.420Z,82.93
2017-07-26T03:41:48.977Z,82.90
2017-07-26T03:44:16.426Z,83.25
2017-07-26T03:46:43.869Z,83.09
2017-07-26T03:49:11.650Z,83.01
2017-07-26T03:51:39.143Z,83.48
2017-07-26T03:54:06.626Z,83.37
2017-07-26T03:56:34.071Z,83.33
2017-07-26T03:59:01.575Z,83.40
2017-07-26T04:01:29.071Z,83.75
2017-07-26T04:03:56.548Z,83.81
2017-07-26T04:06:24.044Z,83.98
2017-07-26T04:08:51.510Z,83.86
2017-07-26T04:11:18.951Z,83.30
2017-07-26T04:13:46.440Z,83.57
2017-07-26T04:16:14.259Z,83.54
2017-07-26T04:18:41.738Z,83.62
2017-07-26T04:21:09.304Z,82.86
2017-07-26T04:23:36.860Z,83.19
2017-07-26T04:26:04.310Z,83.00
2017-07-26T04:28:31.996Z,83.22
2017-07-26T04:30:59.543Z,82.36
2017-07-26T04:33:27.099Z,82.62
2017-07-26T04:35:54.575Z,82.89
2017-07-26T04:38:22.113Z,82.91
2017-07-26T04:40:49.885Z,83.53
2017-07-26T04:43:17.435Z,82.69
2017-07-26T04:45:44.897Z,83.01
2017-07-26T04:48:12.350Z,82.98
2017-07-26T04:50:39.821Z,82.55
2017-07-26T04:53:07.421Z,82.72
2017-07-26T04:55:34.876Z,82.58
2017-07-26T04:58:02.328Z,82.87
2017-07-26T05:00:29.789Z,82.99
2017-07-26T05:02:57.241Z,83.29
2017-07-26T05:05:24.752Z,83.14
2017-07-26T05:07:52.205Z,83.06
2017-07-26T05:10:19.779Z,83.17
2017-07-26T05:12:47.246Z,83.42
2017-07-26T05:15:14.692Z,83.13
2017-07-26T05:17:42.150Z,83.54
2017-07-26T05:20:09.688Z,83.12
2017-07-26T05:22:37.235Z,83.05
2017-07-26T05:25:04.691Z,83.74
2017-07-26T05:27:32.266Z,83.76
2017-07-26T05:29:59.717Z,83.73
2017-07-26T05:32:27.183Z,83.99
2017-07-26T05:34:54.626Z,83.95
2017-07-26T05:37:22.091Z,84.21
2017-07-26T05:39:49.523Z,84.44
2017-07-26T05:42:17.004Z,85.05
2017-07-26T05:44:44.784Z,85.17
2017-07-26T05:47:12.275Z,85.25
2017-07-26T05:49:39.727Z,85.56
2017-07-26T05:52:07.244Z,85.35
2017-07-26T05:54:34.678Z,85.24
2017-07-26T05:57:02.133Z,84.31
2017-07-26T05:59:29.698Z,84.51
2017-07-26T06:01:57.124Z,84.38
2017-07-26T06:04:24.595Z,85.17
2017-07-26T06:06:52.030Z,85.01
2017-07-26T06:09:20.019Z,84.92
2017-07-26T06:11:47.465Z,84.40
2017-07-26T06:14:15.852Z,84.07
2017-07-26T06:16:43.291Z,82.97
2017-07-26T06:19:10.780Z,83.39
2017-07-26T06:21:38.808Z,82.89
2017-07-26T06:24:06.321Z,82.27
2017-07-26T06:26:33.775Z,82.79
2017-07-26T06:29:01.279Z,81.00
2017-07-26T06:31:28.708Z,81.96
2017-07-26T06:33:56.231Z,82.32
2017-07-26T06:36:23.670Z,82.06
2017-07-26T06:38:51.160Z,81.79
2017-07-26T06:41:18.718Z,82.36
2017-07-26T06:43:46.146Z,81.89
2017-07-26T06:46:13.695Z,81.68
2017-07-26T06:48:41.191Z,81.52
2017-07-26T06:51:08.973Z,81.79
2017-07-26T06:53:36.516Z,81.31
2017-07-26T06:56:03.983Z,81.92
2017-07-26T06:58:31.902Z,80.25
2017-07-26T07:00:59.361Z,80.12
2017-07-26T07:03:26.841Z,80.02
2017-07-26T07:05:54.414Z,79.54
2017-07-26T07:08:21.847Z,80.18
2017-07-26T07:10:49.526Z,79.81
2017-07-26T07:13:16.952Z,79.50
2017-07-26T07:15:44.424Z,79.22
2017-07-26T07:18:11.859Z,78.42
2017-07-26T07:20:39.332Z,78.36
2017-07-26T07:23:07.039Z,77.75
2017-07-26T07:25:34.571Z,76.72
2017-07-26T07:28:02.034Z,76.40
2017-07-26T07:30:29.587Z,75.31
2017-07-26T07:32:57.038Z,75.82
2017-07-26T07:35:24.511Z,73.97
2017-07-26T07:37:51.949Z,75.02
2017-07-26T07:40:19.391Z,75.09
2017-07-26T07:42:46.872Z,73.60
2017-07-26T07:45:14.304Z,72.03
2017-07-26T07:47:41.767Z,73.28
2017-07-26T07:50:09.239Z,71.22
2017-07-26T07:52:36.707Z,68.90
2017-07-26T07:55:04.275Z,69.12
2017-07-26T07:57:31.811Z,69.19
2017-07-26T07:59:59.523Z,68.46
2017-07-26T08:02:27.051Z,68.14
2017-07-26T08:04:54.493Z,68.35
2017-07-26T08:07:21.953Z,67.84
2017-07-26T08:09:49.485Z,67.19
2017-07-26T08:12:17.082Z,67.20
2017-07-26T08:14:44.524Z,68.68
2017-07-26T08:17:12.065Z,67.45
2017-07-26T08:19:39.522Z,67.94
2017-07-26T08:22:06.971Z,68.27
2017-07-26T08:24:34.908Z,67.36
2017-07-26T08:27:02.364Z,67.76
2017-07-26T08:29:30.058Z,65.78
2017-07-26T08:31:57.536Z,65.89
2017-07-26T08:34:25.225Z,64.10
2017-07-26T08:36:54.042Z,64.64
2017-07-26T08:39:21.499Z,64.89
2017-07-26T08:41:48.939Z,63.81
2017-07-26T08:44:16.393Z,64.81
2017-07-26T08:46:43.839Z,60.54
2017-07-26T08:49:11.294Z,62.42
2017-07-26T08:51:38.765Z,60.97
2017-07-26T08:54:06.283Z,61.25
2017-07-26T08:56:33.735Z,59.47
2017-07-26T08:59:01.216Z,58.98
2017-07-26T09:01:29.313Z,57.52
2017-07-26T09:03:56.770Z,58.84
2017-07-26T09:06:24.239Z,58.30
2017-07-26T09:08:51.699Z,58.11
2017-07-26T09:11:19.167Z,55.52
2017-07-26T09:13:46.638Z,56.96
2017-07-26T09:16:14.132Z,56.28
2017-07-26T09:18:41.571Z,57.66
2017-07-26T09:21:09.124Z,58.41
2017-07-26T09:23:36.685Z,57.05
2017-07-26T09:26:04.543Z,56.58
2017-07-26T09:28:32.059Z,55.57
2017-07-26T09:30:59.559Z,55.59
2017-07-26T09:33:27.015Z,56.44
2017-07-26T09:35:54.477Z,56.37
2017-07-26T09:38:21.918Z,57.95
2017-07-26T09:40:49.390Z,57.80
2017-07-26T09:43:16.964Z,58.86
2017-07-26T09:45:44.436Z,59.91
2017-07-26T09:48:11.963Z,59.56
2017-07-26T09:50:39.431Z,60.70
2017-07-26T09:53:06.875Z,62.00
2017-07-26T09:55:34.315Z,61.86
2017-07-26T09:58:01.792Z,61.28
2017-07-26T10:00:29.231Z,61.84
2017-07-26T10:02:56.821Z,62.78
2017-07-26T10:05:24.277Z,62.57
2017-07-26T10:07:51.821Z,62.10
2017-07-26T10:10:19.249Z,61.09
2017-07-26T10:12:46.710Z,60.49
2017-07-26T10:15:14.270Z,59.62
2017-07-26T10:17:41.828Z,59.52
2017-07-26T10:20:09.256Z,57.91
2017-07-26T10:22:36.719Z,57.52
2017-07-26T10:25:04.163Z,55.25
2017-07-26T10:27:32.199Z,54.78
2017-07-26T10:29:59.702Z,54.95
2017-07-26T10:32:27.158Z,53.41
2017-07-26T10:34:54.654Z,52.88
2017-07-26T10:37:22.109Z,53.09
2017-07-26T10:39:49.770Z,53.54
2017-07-26T10:42:17.346Z,53.29
2017-07-26T10:44:44.777Z,51.92
2017-07-26T10:47:12.221Z,50.31
2017-07-26T10:49:39.685Z,51.11
2017-07-26T10:52:07.128Z,51.91
2017-07-26T10:54:34.597Z,54.08
2017-07-26T10:57:02.067Z,56.04
2017-07-26T10:59:29.628Z,55.41
2017-07-26T11:01:57.061Z,57.20
2017-07-26T11:04:24.758Z,57.22
2017-07-26T11:06:52.215Z,57.83
2017-07-26T11:09:20.569Z,60.10
2017-07-26T11:11:48.030Z,59.83
2017-07-26T11:14:15.490Z,59.58
2017-07-26T11:16:43.005Z,59.83
2017-07-26T11:19:10.474Z,58.90
2017-07-26T11:21:37.905Z,59.73
2017-07-26T11:24:05.362Z,59.25
2017-07-26T11:26:32.896Z,58.55
2017-07-26T11:29:00.434Z,58.53
2017-07-26T11:31:27.904Z,59.25
2017-07-26T11:33:55.347Z,59.06
2017-07-26T11:36:22.851Z,58.47
2017-07-26T11:38:50.316Z,58.08
2017-07-26T11:41:17.774Z,57.22
2017-07-26T11:43:45.265Z,57.36
2017-07-26T11:46:12.826Z,58.66
2017-07-26T11:48:40.263Z,57.50
2017-07-26T11:51:07.717Z,56.34
2017-07-26T11:53:35.197Z,54.77
2017-07-26T11:56:02.660Z,55.80
2017-07-26T11:58:30.132Z,56.58
2017-07-26T12:00:57.687Z,59.03
2017-07-26T12:03:25.118Z,60.82
2017-07-26T12:05:52.598Z,61.23
2017-07-26T12:08:20.073Z,61.50
2017-07-26T12:10:47.604Z,62.30
2017-07-26T12:13:15.072Z,62.65
2017-07-26T12:15:42.675Z,63.66
2017-07-26T12:18:10.181Z,64.03
2017-07-26T12:20:37.647Z,63.38
2017-07-26T12:23:05.198Z,64.00
2017-07-26T12:25:32.635Z,63.74
2017-07-26T12:28:00.097Z,63.93
2017-07-26T12:30:27.565Z,63.60
2017-07-26T12:32:55.119Z,62.26
2017-07-26T12:35:22.580Z,62.28
2017-07-26T12:37:50.090Z,61.30
2017-07-26T12:40:17.590Z,59.68
2017-07-26T12:42:45.052Z,58.69
2017-07-26T12:45:12.504Z,57.16
2017-07-26T12:47:39.964Z,57.64
2017-07-26T12:50:07.532Z,57.06
2017-07-26T12:52:35.136Z,56.33
2017-07-26T12:55:02.640Z,55.24
2017-07-26T12:57:30.093Z,56.09
2017-07-26T12:59:57.546Z,56.91
2017-07-26T13:02:24.969Z,56.78
2017-07-26T13:04:52.463Z,55.84
2017-07-26T13:07:19.923Z,53.83
2017-07-26T13:09:47.482Z,55.18
2017-07-26T13:12:14.927Z,53.26
2017-07-26T13:14:42.496Z,52.59
2017-07-26T13:17:09.953Z,52.82
2017-07-26T13:19:37.512Z,53.38
2017-07-26T13:22:04.953Z,51.09
2017-07-26T13:24:32.509Z,51.50
2017-07-26T13:26:59.942Z,50.96
2017-07-26T13:29:27.494Z,51.47
2017-07-26T13:31:54.942Z,51.67
2017-07-26T13:34:22.509Z,52.17
2017-07-26T13:36:49.963Z,52.71
2017-07-26T13:39:17.462Z,53.03
2017-07-26T13:41:45.032Z,52.81
2017-07-26T13:44:12.471Z,54.69
2017-07-26T13:46:39.954Z,54.79
2017-07-26T13:49:07.485Z,53.83
2017-07-26T13:51:35.056Z,55.38
2017-07-26T13:54:02.497Z,54.05
2017-07-26T13:56:29.950Z,54.38
2017-07-26T13:58:57.383Z,55.91
2017-07-26T14:01:24.939Z,54.92
2017-07-26T14:03:52.388Z,54.61
2017-07-26T14:06:19.872Z,54.22
2017-07-26T14:08:47.320Z,54.17
2017-07-26T14:11:14.754Z,53.86
2017-07-26T14:13:42.226Z,54.17
2017-07-26T14:16:09.683Z,53.66
2017-07-26T14:18:37.174Z,55.26
2017-07-26T14:21:04.640Z,54.37
2017-07-26T14:23:32.181Z,53.56
2017-07-26T14:25:59.635Z,55.73
2017-07-26T14:28:27.217Z,54.17
2017-07-26T14:30:54.781Z,54.80
2017-07-26T14:33:22.331Z,55.19
2017-07-26T14:35:49.768Z,54.07
2017-07-26T14:38:17.225Z,54.64
2017-07-26T14:40:44.685Z,53.72
2017-07-26T14:43:12.147Z,54.48
2017-07-26T14:45:39.586Z,53.94
2017-07-26T14:48:07.042Z,54.64
2017-07-26T14:50:34.519Z,52.94
2017-07-26T14:53:02.076Z,52.56
2017-07-26T14:55:29.535Z,52.60
2017-07-26T14:57:56.975Z,53.29
2017-07-26T15:00:24.453Z,53.22
2017-07-26T15:02:51.891Z,53.77
2017-07-26T15:05:19.351Z,52.86
2017-07-26T15:07:46.826Z,52.64
2017-07-26T15:10:14.283Z,52.40
2017-07-26T15:12:41.791Z,51.88
2017-07-26T15:15:09.266Z,52.07
2017-07-26T15:17:36.701Z,50.67
2017-07-26T15:20:04.193Z,52.28
2017-07-26T15:22:31.900Z,52.99
2017-07-26T15:24:59.349Z,52.32
2017-07-26T15:27:26.806Z,53.39
2017-07-26T15:29:54.291Z,53.80
2017-07-26T15:32:21.781Z,53.39
2017-07-26T15:34:49.580Z,55.66
2017-07-26T15:37:17.043Z,54.37
2017-07-26T15:39:44.498Z,53.33
2017-07-26T15:42:11.963Z,53.49
2017-07-26T15:44:39.473Z,53.63
2017-07-26T15:47:07.396Z,52.05
2017-07-26T15:49:34.843Z,52.76
2017-07-26T15:52:02.306Z,55.36
2017-07-26T15:54:29.751Z,52.88
2017-07-26T15:56:57.270Z,51.68
2017-07-26T15:59:24.734Z,52.52
2017-07-26T16:01:52.196Z,51.71
2017-07-26T16:04:19.738Z,51.27
2017-07-26T16:06:47.195Z,51.53
2017-07-26T16:09:14.637Z,51.65
2017-07-26T16:11:42.121Z,51.89
2017-07-26T16:14:09.549Z,52.92
2017-07-26T16:16:37.022Z,53.89
2017-07-26T16:19:04.477Z,53.58
2017-07-26T16:21:31.919Z,54.72
2017-07-26T16:23:59.584Z,55.43
2017-07-26T16:26:27.017Z,54.30
2017-07-26T16:28:54.527Z,55.30
2017-07-26T16:31:21.958Z,56.85
2017-07-26T16:33:49.517Z,55.46
2017-07-26T16:36:16.953Z,55.26
2017-07-26T16:38:44.415Z,53.98
2017-07-26T16:41:11.855Z,55.98
2017-07-26T16:43:39.349Z,53.69
2017-07-26T16:46:06.805Z,53.58
2017-07-26T16:48:34.376Z,50.64
2017-07-26T16:51:01.806Z,53.50
2017-07-26T16:53:29.267Z,51.22
2017-07-26T16:55:56.735Z,50.65
2017-07-26T16:58:24.295Z,50.74
2017-07-26T17:00:52.343Z,49.80
2017-07-26T17:03:19.827Z,49.18
2017-07-26T17:05:47.262Z,50.30
2017-07-26T17:08:14.707Z,49.94
2017-07-26T17:10:42.182Z,47.37
2017-07-26T17:13:09.857Z,46.98
2017-07-26T17:15:37.441Z,45.84
2017-07-26T17:18:05.289Z,49.46
2017-07-26T17:20:32.776Z,47.92
2017-07-26T17:23:00.228Z,45.76
2017-07-26T17:25:28.103Z,45.96
2017-07-26T17:27:55.676Z,44.94
2017-07-26T17:30:23.184Z,45.23
2017-07-26T17:32:50.640Z,45.79
2017-07-26T17:35:18.122Z,45.99
2017-07-26T17:37:45.657Z,47.07
2017-07-26T17:40:13.129Z,47.37
2017-07-26T17:42:40.599Z,46.96
2017-07-26T17:45:08.070Z,47.64
2017-07-26T17:47:35.512Z,48.28
2017-07-26T17:50:03.092Z,49.15
2017-07-26T17:52:30.560Z,48.60
2017-07-26T17:54:58.156Z,49.62
2017-07-26T17:57:25.603Z,49.50
2017-07-26T17:59:53.157Z,50.03
2017-07-26T18:02:20.660Z,50.26
2017-07-26T18:04:48.089Z,50.38
2017-07-26T18:07:16.514Z,50.46
2017-07-26T18:09:43.971Z,50.61
2017-07-26T18:12:11.429Z,50.85
2017-07-26T18:14:38.921Z,51.27
2017-07-26T18:17:06.378Z,51.25
2017-07-26T18:19:33.865Z,51.51
2017-07-26T18:22:01.325Z,51.64
2017-07-26T18:24:28.762Z,52.20
2017-07-26T18:26:56.214Z,52.20
2017-07-26T18:29:23.651Z,53.16
2017-07-26T18:31:51.117Z,52.09
2017-07-26T18:34:18.584Z,52.40
2017-07-26T18:36:46.029Z,53.88
2017-07-26T18:39:13.493Z,53.96
2017-07-26T18:41:40.940Z,53.81
2017-07-26T18:44:08.409Z,54.43
2017-07-26T18:46:35.857Z,55.69
2017-07-26T18:49:03.309Z,54.51
2017-07-26T18:51:30.832Z,55.96
2017-07-26T18:53:58.325Z,55.75
2017-07-26T18:56:25.768Z,56.47
2017-07-26T18:58:53.231Z,56.35
2017-07-26T19:01:20.667Z,56.98
2017-07-26T19:03:48.159Z,57.31
2017-07-26T19:06:15.656Z,58.30
2017-07-26T19:08:43.147Z,58.49
2017-07-26T19:11:10.635Z,58.28
2017-07-26T19:13:38.102Z,58.76
2017-07-26T19:16:05.633Z,59.26
2017-07-26T19:18:33.080Z,59.78
2017-07-26T19:21:00.526Z,60.04
2017-07-26T19:23:27.979Z,60.22
2017-07-26T19:25:55.565Z,60.35
2017-07-26T19:28:23.800Z,61.55
2017-07-26T19:30:51.319Z,63.18
2017-07-26T19:33:18.773Z,61.83
2017-07-26T19:35:46.265Z,62.29
2017-07-26T19:38:16.528Z,66.28
2017-07-26T19:40:43.998Z,67.55
2017-07-26T19:43:11.467Z,68.70
2017-07-26T19:45:38.930Z,66.94
2017-07-26T19:48:06.392Z,68.96
2017-07-26T19:50:33.948Z,69.85
2017-07-26T19:53:01.406Z,70.04
2017-07-26T19:55:28.887Z,70.28
2017-07-26T19:57:56.355Z,70.23
2017-07-26T20:00:23.874Z,71.45
2017-07-26T20:02:51.318Z,71.74
2017-07-26T20:05:18.806Z,71.92
2017-07-26T20:07:46.334Z,71.75
2017-07-26T20:10:13.927Z,71.78
2017-07-26T20:12:41.392Z,72.06
2017-07-26T20:15:08.842Z,71.84
2017-07-26T20:17:36.325Z,72.07
2017-07-26T20:20:03.770Z,72.35
2017-07-26T20:22:31.335Z,72.97
2017-07-26T20:24:58.780Z,72.92
2017-07-26T20:27:27.166Z,73.65
2017-07-26T20:29:54.611Z,73.44
2017-07-26T20:32:22.083Z,72.90
2017-07-26T20:34:49.529Z,71.43
2017-07-26T20:37:17.000Z,71.26
2017-07-26T20:39:44.568Z,72.43
2017-07-26T20:42:12.243Z,72.95
2017-07-26T20:44:39.723Z,73.83
2017-07-26T20:47:07.189Z,74.24
2017-07-26T20:49:34.779Z,74.48
2017-07-26T20:52:02.281Z,74.20
2017-07-26T20:54:29.702Z,76.25
2017-07-26T20:56:57.183Z,77.13
2017-07-26T20:59:24.646Z,76.24
2017-07-26T21:01:52.127Z,75.65
2017-07-26T21:04:20.679Z,76.70
2017-07-26T21:06:48.151Z,76.62
2017-07-26T21:09:15.606Z,76.51
2017-07-26T21:11:43.048Z,76.87
2017-07-26T21:14:10.527Z,77.07
2017-07-26T21:16:38.071Z,77.26
2017-07-26T21:19:05.545Z,77.22
2017-07-26T21:21:33.045Z,76.97
2017-07-26T21:24:00.499Z,77.33
2017-07-26T21:26:27.940Z,76.45
2017-07-26T21:28:55.463Z,76.41
2017-07-26T21:31:22.906Z,76.76
2017-07-26T21:33:50.461Z,76.61
2017-07-26T21:36:17.923Z,77.37
2017-07-26T21:38:45.394Z,76.94
2017-07-26T21:41:12.832Z,77.96
2017-07-26T21:43:40.399Z,77.85
2017-07-26T21:46:07.849Z,77.91
2017-07-26T21:48:35.422Z,77.86
2017-07-26T21:51:02.854Z,77.66
2017-07-26T21:53:30.337Z,78.21
2017-07-26T21:55:57.791Z,78.43
2017-07-26T21:58:25.235Z,78.50
2017-07-26T22:00:52.690Z,78.43
2017-07-26T22:03:20.134Z,77.96
2017-07-26T22:05:47.611Z,78.20
2017-07-26T22:08:15.042Z,78.56
2017-07-26T22:10:42.507Z,78.72
2017-07-26T22:13:09.959Z,78.61
2017-07-26T22:15:37.410Z,78.96
2017-07-26T22:18:04.899Z,79.21
2017-07-26T22:20:32.438Z,79.41
2017-07-26T22:22:59.877Z,79.38
2017-07-26T22:25:27.360Z,79.46
2017-07-26T22:27:54.797Z,79.71
2017-07-26T22:30:22.263Z,80.31
2017-07-26T22:32:49.714Z,80.85
2017-07-26T22:35:17.174Z,81.00
2017-07-26T22:37:44.651Z,81.06
2017-07-26T22:40:12.171Z,81.22
2017-07-26T22:42:39.653Z,81.76
2017-07-26T22:45:07.110Z,81.93
2017-07-26T22:47:34.556Z,81.95
2017-07-26T22:50:02.090Z,81.57
2017-07-26T22:52:29.586Z,81.97
2017-07-26T22:54:57.048Z,81.65
2017-07-26T22:57:24.507Z,81.14
2017-07-26T22:59:51.943Z,81.69
2017-07-26T23:02:19.411Z,81.21
2017-07-26T23:07:39.795Z,80.01
2017-07-26T23:10:07.246Z,80.84
2017-07-26T23:12:34.732Z,80.94
2017-07-26T23:15:02.158Z,80.93
2017-07-26T23:17:29.658Z,80.37
2017-07-26T23:19:58.534Z,80.47
2017-07-26T23:22:26.105Z,79.59
2017-07-26T23:24:53.570Z,79.47
2017-07-26T23:27:21.025Z,80.21
2017-07-26T23:29:48.751Z,78.87
2017-07-26T23:32:16.291Z,79.91
2017-07-26T23:34:43.732Z,80.58
2017-07-26T23:37:11.186Z,79.98
2017-07-26T23:39:38.631Z,79.90
2017-07-26T23:42:06.418Z,80.42
2017-07-26T23:44:33.940Z,79.47
2017-07-26T23:47:01.500Z,79.75
2017-07-26T23:49:28.945Z,78.93
2017-07-26T23:51:56.493Z,79.27
2017-07-26T23:54:23.959Z,79.68
2017-07-26T23:56:51.427Z,80.29
2017-07-26T23:59:18.986Z,79.65
